Furniss, New York
Current Conditions -  °F | °C
As of 8:54 AM on Tuesday 21 Oct 2014 (Local Time) from KFZY Reporting Station
Haze Haze  
Wind Chill: 46°   Ceiling: 3800
Heat Index: 49°   Visibility: 6mi
Dew Point: 46°   Wind: 7mph
Humidity: 90%   Direction: 90°E
Pressure: 29.85"   Gusts: NA
Location:  43.4571°N, 76.4163°W
Report Text: KFZY 211254Z AUTO 09006KT 6SM BR FEW022 BKN038 OVC070 09/08 A2985 RMK AO2 RAE01 SLP107 P0000 T00940078
Loading
Personal Weather Stations






























Interactive Weather Map
Tropical Storm Tracking
New forecast layout! Learn more

10-Day Weather Forecast

Advertisements
Track Severe Weather on mobile